createdAt,value
2017-12-25T00:01:27.548Z,10.5
2017-12-25T00:11:28.891Z,13.2
2017-12-25T00:21:32.162Z,12.5
2017-12-25T00:31:44.254Z,9.0
2017-12-25T00:41:33.754Z,9.9
2017-12-25T00:51:26.647Z,10.6
2017-12-25T01:01:29.015Z,7.0
2017-12-25T01:11:27.448Z,9.2
2017-12-25T01:21:35.556Z,8.7
2017-12-25T01:31:27.110Z,8.9
2017-12-25T01:41:26.820Z,8.3
2017-12-25T01:51:26.309Z,8.3
2017-12-25T02:01:26.905Z,6.6
2017-12-25T02:11:33.644Z,7.3
2017-12-25T02:21:28.988Z,6.7
2017-12-25T02:31:28.934Z,10.3
2017-12-25T02:41:27.743Z,10.2
2017-12-25T02:51:28.339Z,5.7
2017-12-25T03:01:27.825Z,7.6
2017-12-25T03:11:32.611Z,6.3
2017-12-25T03:21:33.781Z,6.3
2017-12-25T03:31:32.611Z,6.5
2017-12-25T03:41:27.555Z,5.7
2017-12-25T03:51:32.877Z,4.9
2017-12-25T04:01:30.480Z,4.4
2017-12-25T04:11:28.872Z,4.5
2017-12-25T04:21:30.668Z,4.5
2017-12-25T04:31:33.196Z,8.2
2017-12-25T04:41:27.732Z,6.8
2017-12-25T04:51:26.426Z,9.1
2017-12-25T05:01:32.679Z,4.4
2017-12-25T05:11:32.819Z,3.9
2017-12-25T05:21:28.106Z,4.2
2017-12-25T05:31:26.186Z,4.5
2017-12-25T05:41:32.221Z,3.6
2017-12-25T05:51:32.815Z,3.8
2017-12-25T06:01:32.540Z,6.7
2017-12-25T06:11:33.680Z,4.1
2017-12-25T06:21:34.482Z,4.9
2017-12-25T06:31:34.219Z,5.1
2017-12-25T06:41:29.229Z,5.5
2017-12-25T06:51:27.506Z,4.1
2017-12-25T07:01:32.353Z,4.8
2017-12-25T07:11:27.800Z,5.9
2017-12-25T07:21:31.837Z,6.7
2017-12-25T07:31:27.426Z,7.0
2017-12-25T07:41:32.284Z,6.3
2017-12-25T07:51:28.212Z,8.9
2017-12-25T08:01:33.498Z,5.9
2017-12-25T08:11:33.788Z,5.9
2017-12-25T08:21:31.932Z,7.9
2017-12-25T08:31:32.406Z,7.4
2017-12-25T08:41:27.816Z,7.4
2017-12-25T08:51:33.432Z,5.4
2017-12-25T09:01:32.766Z,9.0
2017-12-25T09:11:29.279Z,7.4
2017-12-25T09:21:30.264Z,9.2
2017-12-25T09:31:33.669Z,12.2
2017-12-25T09:41:32.970Z,9.8
2017-12-25T09:51:32.448Z,11.4
2017-12-25T10:01:26.574Z,9.5
2017-12-25T10:11:28.097Z,11.6
2017-12-25T10:21:27.283Z,11.6
2017-12-25T10:31:27.643Z,11.2
2017-12-25T10:41:27.439Z,12.9
2017-12-25T10:51:28.003Z,19.1
2017-12-25T11:01:26.510Z,15.8
2017-12-25T11:11:27.601Z,13.3
2017-12-25T11:21:27.080Z,13.9
2017-12-25T11:31:26.951Z,14.6
2017-12-25T11:41:26.812Z,16.9
2017-12-25T11:51:26.834Z,12.2
2017-12-25T12:01:26.145Z,12.8
2017-12-25T12:11:28.876Z,12.1
2017-12-25T12:21:26.897Z,14.0
2017-12-25T12:31:28.502Z,16.6
2017-12-25T12:41:28.580Z,12.0
2017-12-25T12:51:28.109Z,12.1
2017-12-25T13:01:26.838Z,11.2
2017-12-25T13:11:26.694Z,11.4
2017-12-25T13:21:26.693Z,12.6
2017-12-25T13:31:27.661Z,12.5
2017-12-25T13:41:26.849Z,14.0
2017-12-25T13:51:27.247Z,12.0
2017-12-25T14:01:26.441Z,9.4
2017-12-25T14:11:29.133Z,12.5
2017-12-25T14:21:27.595Z,13.5
2017-12-25T14:31:27.655Z,14.9
2017-12-25T14:41:27.343Z,13.5
2017-12-25T14:51:27.892Z,9.3
2017-12-25T15:01:28.041Z,12.9
2017-12-25T15:11:27.478Z,13.7
2017-12-25T15:21:27.240Z,16.4
2017-12-25T15:31:26.820Z,16.2
2017-12-25T15:41:26.316Z,15.7
2017-12-25T15:51:27.916Z,16.8
2017-12-25T16:01:27.858Z,15.2
2017-12-25T16:11:27.632Z,21.5
2017-12-25T16:21:26.618Z,22.0
2017-12-25T16:31:27.565Z,32.7
2017-12-25T16:41:27.113Z,46.0
2017-12-25T16:51:27.080Z,26.1
2017-12-25T17:01:27.008Z,29.7
2017-12-25T17:11:26.229Z,40.6
2017-12-25T17:21:27.882Z,30.6
2017-12-25T17:31:26.592Z,30.6
2017-12-25T17:41:27.324Z,35.5
2017-12-25T17:51:26.957Z,36.0
2017-12-25T18:01:26.425Z,37.5
2017-12-25T18:11:26.894Z,40.1
2017-12-25T18:21:26.701Z,54.8
2017-12-25T18:31:27.706Z,49.7
2017-12-25T18:41:27.305Z,77.3
2017-12-25T18:51:27.743Z,103.6
2017-12-25T19:01:28.452Z,109.5
2017-12-25T19:11:28.069Z,307.2
2017-12-25T19:21:26.554Z,132.5
2017-12-25T19:31:27.438Z,125.6
2017-12-25T19:41:28.687Z,196.6
2017-12-25T19:51:28.171Z,165.0
2017-12-25T20:01:26.688Z,118.9
2017-12-25T20:11:29.940Z,124.5
2017-12-25T20:21:26.556Z,129.8
2017-12-25T20:31:30.566Z,128.1
2017-12-25T20:41:27.948Z,128.5
2017-12-25T20:51:28.565Z,132.9
2017-12-25T21:01:27.568Z,126.4
2017-12-25T21:11:27.343Z,118.8
2017-12-25T21:21:28.809Z,132.3
2017-12-25T21:31:30.119Z,139.5
2017-12-25T21:41:29.612Z,135.1
2017-12-25T21:51:27.389Z,126.5
2017-12-25T22:01:30.329Z,129.2
2017-12-25T22:11:26.452Z,129.7
2017-12-25T22:21:28.049Z,130.9
2017-12-25T22:31:29.260Z,135.0
2017-12-25T22:41:28.464Z,161.3
2017-12-25T22:51:27.263Z,543.7
2017-12-25T23:01:29.310Z,345.7
2017-12-25T23:11:27.296Z,377.5
2017-12-25T23:21:27.074Z,279.7
2017-12-25T23:31:26.253Z,302.9
2017-12-25T23:41:27.502Z,406.6
2017-12-25T23:51:26.274Z,277.7
